Time;durP1;ratioP1;P1;durP2;ratioP2;P2;SDS_P1;SDS_P2;PMS_P1;PMS_P2;Temp;Humidity;BMP_temperature;BMP_pressure;BME280_temperature;BME280_humidity;BME280_pressure;Samples;Min_cycle;Max_cycle;Signal;HPM_P1;HPM_P2
2023/06/01 00:01:33;;;;;;;2.40;1.70;;;11.70;99.90;;;;;;4992106;28;20338;-81
2023/06/01 00:04:01;;;;;;;3.90;1.80;;;11.80;99.90;;;;;;4992643;28;20265;-81
2023/06/01 00:06:28;;;;;;;9.03;1.80;;;11.80;99.90;;;;;;4992895;28;20508;-81
2023/06/01 00:08:57;;;;;;;2.90;2.23;;;11.90;99.90;;;;;;5008656;28;20226;-80
2023/06/01 00:11:23;;;;;;;2.50;2.30;;;11.90;99.90;;;;;;4976378;28;20707;-81
2023/06/01 00:13:50;;;;;;;10.37;1.20;;;11.90;99.90;;;;;;5009766;28;20231;-81
2023/06/01 00:16:16;;;;;;;4.53;1.63;;;11.80;99.90;;;;;;4992177;28;20665;-81
2023/06/01 00:18:42;;;;;;;3.73;1.30;;;11.80;99.90;;;;;;5008684;28;20287;-83
2023/06/01 00:21:08;;;;;;;2.50;1.60;;;11.80;99.90;;;;;;5009308;28;20703;-81
2023/06/01 00:23:34;;;;;;;5.63;2.37;;;11.80;99.90;;;;;;5009380;28;20232;-83
2023/06/01 00:26:01;;;;;;;1.77;1.63;;;11.70;99.90;;;;;;4991996;28;20219;-80
2023/06/01 00:28:27;;;;;;;3.50;1.70;;;11.70;99.90;;;;;;5009062;28;20656;-81
2023/06/01 00:30:53;;;;;;;2.43;1.40;;;11.60;99.90;;;;;;5009325;28;20175;-82
2023/06/01 00:33:22;;;;;;;1.37;1.17;;;11.70;99.90;;;;;;4992354;28;20671;-80
2023/06/01 00:35:48;;;;;;;1.67;1.40;;;11.70;99.90;;;;;;5009419;28;20235;-81
2023/06/01 00:38:13;;;;;;;4.07;1.90;;;11.70;99.90;;;;;;4975623;28;20226;-83
2023/06/01 00:40:39;;;;;;;2.20;2.00;;;11.60;99.90;;;;;;5009253;28;20318;-80
2023/06/01 00:43:05;;;;;;;4.47;1.33;;;11.60;99.90;;;;;;4975368;28;20239;-82
2023/06/01 00:45:31;;;;;;;2.07;1.90;;;11.50;99.90;;;;;;4975949;28;20278;-81
2023/06/01 00:47:57;;;;;;;2.70;1.33;;;11.50;99.90;;;;;;5008830;28;20728;-81
2023/06/01 00:50:24;;;;;;;2.83;1.57;;;11.50;99.90;;;;;;4991246;28;20223;-83
2023/06/01 00:52:51;;;;;;;1.83;1.53;;;11.60;99.90;;;;;;5009052;28;20268;-81
2023/06/01 00:55:18;;;;;;;3.30;2.00;;;11.60;99.90;;;;;;4991719;28;20350;-81
2023/06/01 00:57:44;;;;;;;7.90;1.70;;;11.60;99.90;;;;;;4992655;28;20468;-82
2023/06/01 01:00:11;;;;;;;2.50;1.63;;;11.70;99.90;;;;;;5008911;28;20735;-81
2023/06/01 01:02:41;;;;;;;3.40;2.40;;;11.70;99.90;;;;;;5008600;28;20319;-82
2023/06/01 01:05:09;;;;;;;2.93;1.70;;;11.70;99.90;;;;;;5007961;28;20676;-82
2023/06/01 01:08:02;;;;;;;4.23;2.17;;;11.70;99.90;;;;;;4991353;28;20250;-80
2023/06/01 01:10:37;;;;;;;6.57;2.80;;;11.70;99.90;;;;;;5008296;28;20211;-83
2023/06/01 01:13:07;;;;;;;4.43;1.33;;;11.70;99.90;;;;;;5008868;28;20200;-80
2023/06/01 01:15:43;;;;;;;2.90;1.57;;;11.70;99.90;;;;;;4991482;28;20238;-81
2023/06/01 01:18:17;;;;;;;9.53;2.63;;;11.70;99.90;;;;;;4991221;28;20564;-84
2023/06/01 01:20:50;;;;;;;2.93;1.90;;;11.70;99.90;;;;;;5008764;28;20234;-81
2023/06/01 01:23:37;;;;;;;7.50;2.10;;;11.70;99.90;;;;;;4990934;28;20277;-82
2023/06/01 01:26:13;;;;;;;5.07;2.50;;;11.70;99.90;;;;;;4995039;28;20246;-82
2023/06/01 01:28:42;;;;;;;3.67;2.60;;;11.70;99.90;;;;;;5008619;28;20227;-80
2023/06/01 01:31:12;;;;;;;4.67;2.37;;;11.70;99.90;;;;;;4990912;28;20187;-79
2023/06/01 01:33:39;;;;;;;8.33;1.80;;;11.70;99.90;;;;;;5008854;28;20186;-80
2023/06/01 01:36:06;;;;;;;1.70;1.33;;;11.70;99.90;;;;;;5008264;28;20219;-80
2023/06/01 01:38:36;;;;;;;4.40;1.60;;;11.70;99.90;;;;;;4990669;28;20239;-82
2023/06/01 01:41:03;;;;;;;1.90;1.80;;;11.80;99.90;;;;;;4990349;28;20242;-81
2023/06/01 01:43:29;;;;;;;1.43;1.33;;;11.80;99.90;;;;;;4990609;28;20760;-80
2023/06/01 01:46:07;;;;;;;1.73;1.63;;;11.70;99.90;;;;;;4990657;28;20179;-80
2023/06/01 01:48:40;;;;;;;3.37;1.87;;;11.80;99.90;;;;;;4991250;28;20229;-80
2023/06/01 01:51:13;;;;;;;3.87;2.17;;;11.80;99.90;;;;;;5007980;28;20693;-80
2023/06/01 01:53:42;;;;;;;1.60;1.50;;;11.80;99.90;;;;;;4990401;28;20833;-80
2023/06/01 01:56:08;;;;;;;2.53;2.40;;;11.80;99.90;;;;;;4990665;28;20699;-81
2023/06/01 01:58:34;;;;;;;2.83;1.23;;;11.70;99.90;;;;;;4990332;28;20211;-80
2023/06/01 02:01:01;;;;;;;2.77;1.67;;;11.70;99.90;;;;;;4990000;28;20696;-81
2023/06/01 02:03:26;;;;;;;2.63;1.63;;;11.60;99.90;;;;;;4975000;28;20214;-80
2023/06/01 02:05:52;;;;;;;3.40;1.43;;;11.70;99.90;;;;;;5007824;28;20245;-81
2023/06/01 02:08:18;;;;;;;4.93;2.00;;;11.70;99.90;;;;;;4957944;28;20813;-82
2023/06/01 02:10:44;;;;;;;3.03;1.70;;;11.70;99.90;;;;;;4958065;28;20286;-82
2023/06/01 02:13:10;;;;;;;1.87;1.07;;;11.60;99.90;;;;;;4990326;28;20596;-83
2023/06/01 02:15:36;;;;;;;4.20;1.43;;;11.60;99.90;;;;;;4974686;28;20192;-79
2023/06/01 02:18:02;;;;;;;2.63;1.10;;;11.60;99.90;;;;;;5007415;28;20793;-80
2023/06/01 02:20:27;;;;;;;2.93;1.73;;;11.60;99.90;;;;;;4957663;28;20219;-80
2023/06/01 02:22:53;;;;;;;2.23;1.80;;;11.60;99.90;;;;;;4973034;28;20289;-81
2023/06/01 02:25:19;;;;;;;2.17;1.20;;;11.60;99.90;;;;;;4973655;28;20215;-82
2023/06/01 02:27:45;;;;;;;1.93;1.10;;;11.60;99.90;;;;;;4990372;28;20184;-81
2023/06/01 02:30:11;;;;;;;1.57;1.27;;;11.60;99.90;;;;;;4989970;28;20244;-80
2023/06/01 02:32:37;;;;;;;3.80;0.90;;;11.60;99.90;;;;;;4989732;28;20219;-81
2023/06/01 02:35:06;;;;;;;1.00;0.90;;;11.60;99.90;;;;;;4989760;28;20646;-82
2023/06/01 02:37:31;;;;;;;1.43;0.83;;;11.60;99.90;;;;;;4989886;28;20207;-80
2023/06/01 02:39:57;;;;;;;5.47;1.67;;;11.60;99.90;;;;;;4985969;28;20806;-80
2023/06/01 02:42:23;;;;;;;2.03;1.63;;;11.60;99.90;;;;;;4987196;28;20860;-80
2023/06/01 02:44:49;;;;;;;1.30;1.20;;;11.70;99.90;;;;;;4986635;28;20243;-81
2023/06/01 02:47:14;;;;;;;0.80;0.80;;;11.70;99.90;;;;;;4986244;28;20703;-82
2023/06/01 02:49:40;;;;;;;1.87;1.57;;;11.70;99.90;;;;;;4970507;28;20224;-80
2023/06/01 02:52:06;;;;;;;2.10;1.50;;;11.60;99.90;;;;;;4986336;28;20222;-81
2023/06/01 02:54:32;;;;;;;6.33;2.40;;;11.60;99.90;;;;;;4986802;28;20192;-80
2023/06/01 02:56:57;;;;;;;3.97;3.80;;;11.60;99.90;;;;;;4986389;28;20222;-81
2023/06/01 02:59:23;;;;;;;3.17;1.67;;;11.60;99.90;;;;;;4986372;28;20844;-81
2023/06/01 03:01:49;;;;;;;3.43;1.67;;;11.50;99.90;;;;;;4986209;28;20307;-81
2023/06/01 03:04:15;;;;;;;1.87;1.47;;;11.60;99.90;;;;;;4985930;28;20231;-81
2023/06/01 03:06:40;;;;;;;0.87;0.87;;;11.60;99.90;;;;;;4986642;28;20214;-80
2023/06/01 03:09:12;;;;;;;0.80;0.80;;;11.70;99.90;;;;;;4970195;28;20220;-81
2023/06/01 03:11:42;;;;;;;1.23;1.13;;;11.60;99.90;;;;;;4987320;28;20220;-80
2023/06/01 03:14:08;;;;;;;1.47;1.00;;;11.60;99.90;;;;;;4986005;28;20338;-80
2023/06/01 03:16:34;;;;;;;7.37;7.10;;;11.60;99.90;;;;;;4985867;28;20313;-83
2023/06/01 03:19:00;;;;;;;5.40;1.63;;;11.50;99.90;;;;;;4970135;28;20187;-81
2023/06/01 03:21:27;;;;;;;1.43;1.33;;;11.50;99.90;;;;;;4970493;28;20725;-82
2023/06/01 03:23:53;;;;;;;2.93;1.27;;;11.50;99.90;;;;;;4969415;28;20273;-81
2023/06/01 03:26:20;;;;;;;0.80;0.80;;;11.50;99.90;;;;;;4969873;28;20248;-81
2023/06/01 03:28:47;;;;;;;2.10;1.30;;;11.50;99.90;;;;;;4987012;28;20228;-81
2023/06/01 03:31:12;;;;;;;3.73;1.33;;;11.50;99.90;;;;;;4970099;28;20212;-83
2023/06/01 03:33:38;;;;;;;1.67;1.23;;;11.60;99.90;;;;;;4987082;28;20283;-80
2023/06/01 03:36:06;;;;;;;1.50;1.20;;;11.60;99.90;;;;;;4973504;28;20235;-81
2023/06/01 03:38:33;;;;;;;2.13;1.23;;;11.70;99.90;;;;;;4989519;28;20561;-82
2023/06/01 03:41:00;;;;;;;2.13;1.37;;;11.70;99.90;;;;;;4986325;28;20246;-81
2023/06/01 03:43:26;;;;;;;1.37;1.27;;;11.70;99.90;;;;;;4970183;28;20698;-81
2023/06/01 03:45:52;;;;;;;4.53;1.50;;;11.70;99.90;;;;;;4953933;28;20192;-80
2023/06/01 03:48:18;;;;;;;3.53;1.80;;;11.70;99.90;;;;;;4971424;28;20177;-81
2023/06/01 03:50:45;;;;;;;1.63;1.23;;;11.70;99.90;;;;;;4970053;28;20221;-81
2023/06/01 03:53:11;;;;;;;4.03;0.97;;;11.70;99.90;;;;;;4970667;28;20231;-81
2023/06/01 03:55:37;;;;;;;2.83;2.23;;;11.70;99.90;;;;;;4969901;28;20212;-82
2023/06/01 03:58:04;;;;;;;12.57;1.50;;;11.70;99.90;;;;;;4953735;28;20212;-80
2023/06/01 04:00:30;;;;;;;1.87;1.07;;;11.70;99.90;;;;;;4970136;28;20188;-80
2023/06/01 04:02:58;;;;;;;3.10;0.70;;;11.80;99.90;;;;;;4969762;28;20228;-79
2023/06/01 04:05:25;;;;;;;2.40;1.40;;;11.80;99.90;;;;;;4970566;28;20221;-80
2023/06/01 04:07:53;;;;;;;1.47;1.37;;;11.80;99.90;;;;;;4953640;28;20784;-80
2023/06/01 04:10:19;;;;;;;1.50;1.23;;;11.70;99.90;;;;;;4970795;28;20240;-83
2023/06/01 04:12:48;;;;;;;1.30;0.90;;;11.60;99.90;;;;;;4970225;28;20639;-82
2023/06/01 04:15:15;;;;;;;2.50;1.07;;;11.60;99.90;;;;;;4970877;28;20220;-81
2023/06/01 04:17:42;;;;;;;1.50;1.40;;;11.70;99.90;;;;;;4969321;28;20702;-82
2023/06/01 04:20:15;;;;;;;4.13;1.40;;;11.60;99.90;;;;;;4969524;28;20220;-80
2023/06/01 04:22:42;;;;;;;1.40;1.30;;;11.70;99.90;;;;;;4953656;28;20272;-82
2023/06/01 04:25:16;;;;;;;0.63;0.60;;;11.70;99.90;;;;;;4953331;28;20258;-82
2023/06/01 04:27:47;;;;;;;1.47;1.00;;;11.80;99.90;;;;;;4971001;28;20644;-80
2023/06/01 04:30:15;;;;;;;0.73;0.73;;;11.80;99.90;;;;;;4969428;28;20229;-82
2023/06/01 04:32:43;;;;;;;2.20;2.10;;;11.80;99.90;;;;;;4969021;28;20300;-81
2023/06/01 04:35:10;;;;;;;1.97;1.87;;;11.80;99.90;;;;;;4953756;28;20232;-81
2023/06/01 04:37:39;;;;;;;2.47;2.37;;;11.80;99.90;;;;;;4970133;28;20290;-83
2023/06/01 04:40:09;;;;;;;4.30;2.10;;;11.70;99.90;;;;;;4990072;28;20254;-84
2023/06/01 04:42:55;;;;;;;1.87;1.47;;;11.80;99.90;;;;;;4976438;28;20203;-84
2023/06/01 04:45:21;;;;;;;1.33;1.23;;;11.90;99.90;;;;;;4991381;28;20256;-81
2023/06/01 04:47:47;;;;;;;2.27;1.77;;;11.90;99.90;;;;;;5009129;28;20212;-82
2023/06/01 04:50:16;;;;;;;1.43;1.30;;;12.00;99.90;;;;;;4991328;28;20222;-83
2023/06/01 04:52:43;;;;;;;4.13;1.07;;;12.00;99.90;;;;;;4991861;28;20234;-81
2023/06/01 04:55:11;;;;;;;4.93;1.17;;;12.00;99.90;;;;;;4975555;28;20175;-81
2023/06/01 04:57:38;;;;;;;5.37;5.03;;;12.00;99.90;;;;;;4991516;28;20182;-81
2023/06/01 05:00:12;;;;;;;4.20;4.03;;;11.90;99.90;;;;;;4975117;28;20211;-83
2023/06/01 05:02:40;;;;;;;6.17;1.70;;;11.90;99.90;;;;;;4990748;28;20318;-81
2023/06/01 05:05:07;;;;;;;6.30;1.77;;;11.80;99.90;;;;;;4975073;28;20246;-82
2023/06/01 05:07:33;;;;;;;1.97;1.27;;;11.90;99.90;;;;;;5008023;28;20691;-83
2023/06/01 05:10:04;;;;;;;2.63;1.40;;;12.00;99.90;;;;;;4974881;28;20179;-82
2023/06/01 05:12:30;;;;;;;5.00;4.70;;;12.00;99.90;;;;;;4991198;28;20203;-83
2023/06/01 05:14:56;;;;;;;2.37;2.27;;;11.90;99.90;;;;;;4974908;28;20215;-82
2023/06/01 05:17:21;;;;;;;2.23;2.03;;;11.90;99.90;;;;;;4990724;28;20772;-84
2023/06/01 05:19:47;;;;;;;1.60;1.20;;;11.90;99.90;;;;;;4958758;28;20665;-84
2023/06/01 05:22:13;;;;;;;2.00;1.23;;;11.90;99.90;;;;;;4958453;28;20665;-84
2023/06/01 05:24:39;;;;;;;2.23;1.03;;;12.00;99.90;;;;;;4975212;28;20214;-82
2023/06/01 05:27:05;;;;;;;3.83;1.37;;;12.00;99.90;;;;;;4990782;28;20315;-82
2023/06/01 05:29:33;;;;;;;2.87;1.27;;;12.10;99.90;;;;;;4991158;28;20569;-83
2023/06/01 05:31:59;;;;;;;2.37;2.17;;;12.10;99.90;;;;;;4975339;28;20215;-83
2023/06/01 05:34:25;;;;;;;1.90;1.67;;;12.00;99.90;;;;;;4974826;28;20222;-84
2023/06/01 05:36:51;;;;;;;1.07;1.07;;;12.00;99.90;;;;;;4958459;28;20262;-83
2023/06/01 05:39:17;;;;;;;2.40;1.73;;;12.10;99.90;;;;;;4958521;28;20693;-84
2023/06/01 05:41:42;;;;;;;2.50;1.23;;;12.10;99.90;;;;;;4990341;28;20227;-84
2023/06/01 05:44:08;;;;;;;1.90;1.77;;;12.20;99.90;;;;;;5007995;28;20235;-82
2023/06/01 05:46:34;;;;;;;1.73;1.37;;;12.20;99.90;;;;;;5007899;28;20677;-84
2023/06/01 05:49:00;;;;;;;3.73;1.37;;;12.20;99.90;;;;;;4990358;28;20638;-83
2023/06/01 05:51:26;;;;;;;4.27;1.00;;;12.20;99.90;;;;;;5008568;28;20188;-84
2023/06/01 05:53:51;;;;;;;1.50;1.27;;;12.30;99.90;;;;;;4990169;28;20650;-83
2023/06/01 05:56:17;;;;;;;3.40;2.93;;;12.30;99.90;;;;;;5007511;28;20222;-84
2023/06/01 05:58:43;;;;;;;2.47;2.30;;;12.20;99.90;;;;;;4972639;28;20215;-84
2023/06/01 06:01:10;;;;;;;2.37;2.27;;;12.10;99.90;;;;;;5007694;28;20233;-85
2023/06/01 06:03:36;;;;;;;0.80;0.80;;;12.00;99.90;;;;;;4990151;28;20215;-84
2023/06/01 06:06:02;;;;;;;1.20;1.10;;;12.10;99.90;;;;;;4989984;28;20230;-82
2023/06/01 06:08:29;;;;;;;3.13;1.23;;;12.10;99.90;;;;;;4990015;28;20227;-81
2023/06/01 06:10:56;;;;;;;1.70;1.03;;;12.20;99.90;;;;;;5007455;28;20229;-81
2023/06/01 06:13:22;;;;;;;1.17;1.07;;;12.30;99.90;;;;;;4958548;28;20214;-82
2023/06/01 06:15:47;;;;;;;1.47;0.73;;;12.40;99.90;;;;;;4990411;28;20176;-83
2023/06/01 06:18:13;;;;;;;1.57;1.37;;;12.30;99.90;;;;;;4973923;28;20826;-82
2023/06/01 06:20:39;;;;;;;0.93;0.67;;;12.30;99.90;;;;;;4971560;28;20796;-83
2023/06/01 06:23:05;;;;;;;1.00;0.97;;;12.30;99.90;;;;;;4971127;28;20207;-84
2023/06/01 06:25:31;;;;;;;2.70;2.60;;;12.20;99.90;;;;;;4989432;28;20188;-82
2023/06/01 06:27:56;;;;;;;1.03;0.93;;;12.20;99.90;;;;;;4974826;28;20727;-83
2023/06/01 06:30:24;;;;;;;2.47;1.20;;;12.10;99.90;;;;;;4973136;28;20217;-83
2023/06/01 06:32:50;;;;;;;3.70;1.63;;;12.20;99.90;;;;;;4957749;28;20358;-83
2023/06/01 06:35:16;;;;;;;0.77;0.77;;;12.30;99.90;;;;;;4972662;28;20953;-80
2023/06/01 06:37:43;;;;;;;1.43;1.30;;;12.30;99.90;;;;;;5007367;28;20188;-82
2023/06/01 06:40:09;;;;;;;0.30;0.30;;;12.40;99.90;;;;;;4985505;28;20701;-82
2023/06/01 06:42:35;;;;;;;2.10;2.00;;;12.40;99.90;;;;;;4987900;28;20240;-81
2023/06/01 06:45:02;;;;;;;1.00;0.80;;;12.40;99.90;;;;;;4954711;28;20278;-81
2023/06/01 06:47:27;;;;;;;1.87;1.80;;;12.50;99.90;;;;;;4984438;28;20246;-82
2023/06/01 06:49:54;;;;;;;0.90;0.77;;;12.50;99.90;;;;;;4953075;28;20615;-84
2023/06/01 06:52:19;;;;;;;2.23;2.03;;;12.40;99.90;;;;;;4985867;28;20194;-81
2023/06/01 06:54:45;;;;;;;1.30;1.20;;;12.50;99.90;;;;;;4969740;28;20314;-82
2023/06/01 06:57:12;;;;;;;0.83;0.70;;;12.50;99.90;;;;;;4970204;28;20224;-82
2023/06/01 06:59:38;;;;;;;2.13;1.27;;;12.50;99.90;;;;;;4970191;28;20220;-84
2023/06/01 07:02:04;;;;;;;0.40;0.40;;;12.50;99.90;;;;;;4968461;28;20210;-82
2023/06/01 07:04:30;;;;;;;0.80;0.70;;;12.60;99.90;;;;;;4986939;28;20234;-83
2023/06/01 07:06:56;;;;;;;4.93;4.73;;;12.50;99.90;;;;;;4986898;28;20220;-83
2023/06/01 07:09:21;;;;;;;6.47;6.27;;;12.20;99.90;;;;;;4972518;28;20866;-83
2023/06/01 07:11:47;;;;;;;0.63;0.43;;;12.10;99.90;;;;;;4990862;28;20224;-83
2023/06/01 07:14:14;;;;;;;9.43;8.90;;;12.00;99.90;;;;;;4974996;28;20215;-83
2023/06/01 07:16:40;;;;;;;1.00;0.53;;;12.00;99.90;;;;;;5008369;28;20193;-83
2023/06/01 07:19:07;;;;;;;1.90;0.50;;;11.90;99.90;;;;;;4975456;28;20238;-83
2023/06/01 07:21:33;;;;;;;7.10;6.80;;;11.90;99.90;;;;;;4992686;28;20288;-84
2023/06/01 07:23:58;;;;;;;3.80;1.27;;;11.80;99.90;;;;;;4975269;28;20329;-83
2023/06/01 07:26:26;;;;;;;1.23;0.50;;;12.00;99.90;;;;;;4992038;28;20223;-85
2023/06/01 07:28:53;;;;;;;2.47;2.30;;;11.90;99.90;;;;;;4991756;28;20176;-81
2023/06/01 07:31:27;;;;;;;10.23;9.50;;;12.00;99.90;;;;;;4991684;28;20587;-83
2023/06/01 07:33:55;;;;;;;1.13;0.93;;;12.00;99.90;;;;;;4990792;28;20228;-82
2023/06/01 07:36:26;;;;;;;0.97;0.90;;;12.20;99.90;;;;;;4991741;28;20235;-83
2023/06/01 07:38:52;;;;;;;0.80;0.80;;;12.20;99.90;;;;;;4990671;28;20216;-82
2023/06/01 07:41:18;;;;;;;12.63;2.40;;;12.30;99.90;;;;;;4991765;28;20220;-82
2023/06/01 07:43:44;;;;;;;21.80;20.37;;;12.20;99.90;;;;;;4959178;28;20545;-82
2023/06/01 07:46:09;;;;;;;7.07;6.47;;;12.20;99.90;;;;;;4990508;28;20813;-83
2023/06/01 07:48:38;;;;;;;7.13;6.73;;;12.20;99.90;;;;;;4974218;28;20222;-83
2023/06/01 07:51:05;;;;;;;3.43;1.00;;;12.30;99.90;;;;;;4974603;28;20216;-82
2023/06/01 07:53:34;;;;;;;3.27;1.70;;;12.30;99.90;;;;;;4990137;28;20809;-85
2023/06/01 07:56:01;;;;;;;0.90;0.87;;;12.50;99.90;;;;;;4990430;28;20180;-84
2023/06/01 07:58:27;;;;;;;5.20;1.17;;;12.50;99.90;;;;;;4990812;28;20271;-82
2023/06/01 08:00:53;;;;;;;1.83;1.13;;;12.60;99.90;;;;;;4958009;28;20350;-82
2023/06/01 08:03:20;;;;;;;14.27;10.40;;;12.50;99.90;;;;;;4957547;28;20314;-83
2023/06/01 08:05:46;;;;;;;5.07;1.07;;;12.50;99.90;;;;;;4990928;28;20236;-79
2023/06/01 08:08:12;;;;;;;12.47;11.60;;;12.40;99.90;;;;;;4990018;28;20238;-81
2023/06/01 08:10:39;;;;;;;2.30;1.67;;;12.50;99.90;;;;;;4991677;28;20191;-80
2023/06/01 08:13:07;;;;;;;11.43;9.57;;;12.60;99.90;;;;;;4974108;28;20235;-81
2023/06/01 08:15:34;;;;;;;1.20;1.10;;;12.50;99.90;;;;;;4973990;28;20227;-81
2023/06/01 08:17:59;;;;;;;5.63;1.50;;;12.60;99.90;;;;;;4990725;28;20224;-80
2023/06/01 08:20:26;;;;;;;17.43;16.50;;;12.70;99.90;;;;;;4988954;28;20695;-81
2023/06/01 08:22:52;;;;;;;6.50;1.40;;;12.70;99.90;;;;;;4989604;28;20235;-79
2023/06/01 08:25:19;;;;;;;3.47;3.37;;;12.60;99.90;;;;;;4974062;28;20274;-82
2023/06/01 08:27:46;;;;;;;3.40;1.57;;;12.50;99.90;;;;;;4988922;28;20220;-80
2023/06/01 08:30:11;;;;;;;3.13;1.13;;;12.50;99.90;;;;;;4989128;28;20223;-82
2023/06/01 08:32:38;;;;;;;3.80;1.30;;;12.80;99.90;;;;;;4990280;28;20377;-81
2023/06/01 08:35:06;;;;;;;4.33;0.93;;;12.90;99.90;;;;;;4973491;28;20199;-81
2023/06/01 08:37:32;;;;;;;2.67;1.80;;;13.00;99.90;;;;;;4991316;28;20180;-82
2023/06/01 08:39:59;;;;;;;4.10;1.03;;;13.00;99.90;;;;;;4973304;28;20254;-82
2023/06/01 08:42:27;;;;;;;2.33;2.23;;;13.00;99.90;;;;;;4989622;28;20256;-85
2023/06/01 08:44:55;;;;;;;5.33;1.50;;;12.80;99.90;;;;;;4989571;28;20315;-81
2023/06/01 08:47:24;;;;;;;4.13;3.87;;;12.90;99.90;;;;;;4989088;28;20224;-81
2023/06/01 08:49:51;;;;;;;0.63;0.63;;;12.90;99.90;;;;;;4989627;28;20222;-82
2023/06/01 08:52:20;;;;;;;1.27;1.20;;;12.90;99.90;;;;;;4973456;28;20226;-81
2023/06/01 08:54:46;;;;;;;2.90;2.17;;;12.90;99.90;;;;;;4990534;28;20302;-81
2023/06/01 08:57:13;;;;;;;0.83;0.80;;;12.90;99.90;;;;;;4989187;28;20634;-83
2023/06/01 08:59:39;;;;;;;6.90;4.10;;;13.00;99.90;;;;;;4973090;28;20266;-82
2023/06/01 09:02:06;;;;;;;9.13;8.50;;;12.80;99.90;;;;;;4989250;28;20207;-82
2023/06/01 09:04:37;;;;;;;5.63;5.03;;;13.00;99.90;;;;;;4989725;28;20219;-81
2023/06/01 09:07:03;;;;;;;2.47;2.07;;;12.90;99.90;;;;;;4988452;28;20278;-85
2023/06/01 09:09:29;;;;;;;1.67;1.30;;;12.90;99.90;;;;;;4989230;28;20618;-81
2023/06/01 09:12:21;;;;;;;5.87;5.37;;;13.00;99.90;;;;;;4990033;28;20235;-81
2023/06/01 09:14:47;;;;;;;6.83;3.47;;;12.90;99.90;;;;;;4990063;28;20226;-80
2023/06/01 09:17:23;;;;;;;4.13;0.87;;;12.90;99.90;;;;;;4989069;28;20275;-81
2023/06/01 09:19:56;;;;;;;4.80;1.00;;;13.00;99.90;;;;;;4972852;28;20180;-81
2023/06/01 09:22:22;;;;;;;0.97;0.83;;;13.20;99.90;;;;;;4972627;28;20310;-81
2023/06/01 09:25:00;;;;;;;2.10;1.47;;;13.10;99.90;;;;;;4988096;28;20216;-80
2023/06/01 09:27:26;;;;;;;3.03;1.60;;;13.20;99.90;;;;;;4988572;28;20215;-81
2023/06/01 09:30:01;;;;;;;6.93;1.17;;;13.30;99.90;;;;;;4972040;28;20709;-80
2023/06/01 09:32:27;;;;;;;2.00;1.90;;;13.30;99.90;;;;;;4989091;28;20211;-81
2023/06/01 09:34:54;;;;;;;2.63;1.43;;;13.30;99.90;;;;;;4972154;28;20654;-80
2023/06/01 09:37:20;;;;;;;1.63;1.27;;;13.40;99.90;;;;;;4989075;28;20203;-82
2023/06/01 09:39:46;;;;;;;0.93;0.93;;;13.40;99.90;;;;;;4984807;28;20710;-81
2023/06/01 09:42:12;;;;;;;7.10;6.53;;;13.60;99.90;;;;;;4952313;28;20719;-81
2023/06/01 09:44:40;;;;;;;3.63;1.43;;;13.50;99.90;;;;;;4920601;28;20225;-82
2023/06/01 09:47:12;;;;;;;3.73;1.40;;;13.60;99.90;;;;;;4968325;28;20185;-81
2023/06/01 09:49:43;;;;;;;9.23;1.17;;;13.50;99.90;;;;;;4969086;28;20165;-82
2023/06/01 09:52:16;;;;;;;11.50;10.73;;;13.30;99.90;;;;;;4968939;28;20217;-82
2023/06/01 09:54:47;;;;;;;2.60;1.00;;;13.30;99.90;;;;;;4968277;28;20675;-82
2023/06/01 09:57:20;;;;;;;6.37;5.93;;;13.30;99.90;;;;;;4967941;28;20240;-82
2023/06/01 09:59:47;;;;;;;4.37;4.17;;;13.20;99.90;;;;;;4935783;28;20821;-82
2023/06/01 10:02:21;;;;;;;3.80;1.57;;;13.30;99.90;;;;;;4952517;28;20233;-84
2023/06/01 10:04:53;;;;;;;1.70;1.37;;;13.20;99.90;;;;;;4969114;28;20282;-82
2023/06/01 10:07:20;;;;;;;6.73;6.30;;;13.20;99.90;;;;;;4970327;28;20603;-82
2023/06/01 10:09:51;;;;;;;15.50;14.37;;;13.30;99.90;;;;;;4969575;28;20216;-81
2023/06/01 10:12:17;;;;;;;1.30;1.07;;;13.30;99.90;;;;;;4968056;28;20217;-82
2023/06/01 10:14:42;;;;;;;3.63;1.60;;;13.50;99.90;;;;;;4958812;28;20236;-82
2023/06/01 10:17:09;;;;;;;4.53;1.23;;;13.50;99.90;;;;;;4936268;28;20227;-82
2023/06/01 10:19:38;;;;;;;4.60;4.13;;;13.50;99.90;;;;;;4968871;28;20185;-83
2023/06/01 10:22:05;;;;;;;2.33;1.57;;;13.50;99.90;;;;;;4936304;28;20223;-82
2023/06/01 10:24:32;;;;;;;6.20;1.13;;;13.50;99.90;;;;;;4951719;28;20232;-81
2023/06/01 10:27:14;;;;;;;1.57;0.93;;;13.60;99.90;;;;;;4939456;28;20231;-82
2023/06/01 10:29:41;;;;;;;3.87;1.27;;;13.70;99.90;;;;;;4967582;28;20274;-86
2023/06/01 10:32:36;;;;;;;2.60;1.30;;;13.70;99.90;;;;;;4970015;28;20192;-84
2023/06/01 10:35:02;;;;;;;3.70;1.23;;;13.50;99.90;;;;;;4961047;28;20181;-84
2023/06/01 10:37:28;;;;;;;8.73;1.60;;;13.30;99.90;;;;;;4969133;28;20414;-84
2023/06/01 10:40:18;;;;;;;4.13;3.47;;;13.40;99.90;;;;;;4985514;28;20716;-85
2023/06/01 10:42:45;;;;;;;2.90;2.70;;;13.50;99.90;;;;;;5007402;28;20270;-83
2023/06/01 10:45:37;;;;;;;1.50;1.33;;;13.50;99.90;;;;;;4989784;28;20270;-84
2023/06/01 10:48:11;;;;;;;21.57;20.47;;;13.50;99.90;;;;;;4990756;28;20227;-83
2023/06/01 10:50:38;;;;;;;21.00;19.30;;;13.80;99.90;;;;;;4975023;28;20215;-84
2023/06/01 10:53:27;;;;;;;2.00;1.27;;;13.60;99.90;;;;;;5008086;28;20672;-83
2023/06/01 10:56:22;;;;;;;0.97;0.97;;;13.90;99.90;;;;;;4991109;28;20750;-83
2023/06/01 10:59:07;;;;;;;4.37;1.43;;;13.90;99.90;;;;;;4991856;28;20175;-85
2023/06/01 11:01:35;;;;;;;7.50;2.40;;;13.80;99.90;;;;;;5008840;28;20302;-84
2023/06/01 11:04:01;;;;;;;5.87;2.13;;;13.70;99.90;;;;;;5008144;28;20231;-83
2023/06/01 11:06:39;;;;;;;5.47;5.13;;;13.80;99.90;;;;;;5007334;28;20219;-88
2023/06/01 11:09:07;;;;;;;16.07;14.90;;;13.90;99.90;;;;;;4989828;28;20222;-83
2023/06/01 11:11:48;;;;;;;2.13;1.60;;;13.60;99.90;;;;;;4990051;28;20327;-84
2023/06/01 11:14:16;;;;;;;20.13;19.10;;;13.60;99.90;;;;;;4990292;28;20262;-83
2023/06/01 11:16:42;;;;;;;17.40;16.53;;;13.60;99.90;;;;;;4974502;28;20180;-85
2023/06/01 11:19:09;;;;;;;9.77;9.03;;;13.50;99.90;;;;;;5008038;28;20303;-81
2023/06/01 11:21:44;;;;;;;3.60;3.40;;;13.80;99.90;;;;;;4958430;28;20769;-83
2023/06/01 11:24:17;;;;;;;3.70;1.60;;;13.90;99.90;;;;;;4974611;28;20241;-84
2023/06/01 11:26:48;;;;;;;1.13;0.97;;;13.80;99.90;;;;;;4974924;28;20226;-83
2023/06/01 11:29:19;;;;;;;2.43;1.00;;;14.10;99.90;;;;;;4979975;28;20263;-82
2023/06/01 11:31:56;;;;;;;1.83;1.73;;;14.10;99.90;;;;;;4991028;28;20187;-84
2023/06/01 11:34:45;;;;;;;2.20;1.03;;;14.00;99.90;;;;;;4974889;28;20273;-86
2023/06/01 11:37:15;;;;;;;8.57;1.50;;;13.90;99.90;;;;;;5006787;28;20211;-85
2023/06/01 11:39:42;;;;;;;1.10;1.00;;;13.90;99.90;;;;;;4989636;28;20243;-85
2023/06/01 11:42:19;;;;;;;5.50;5.30;;;13.90;99.90;;;;;;4973901;28;20587;-84
2023/06/01 11:44:55;;;;;;;11.60;10.77;;;13.80;99.90;;;;;;4989877;28;20319;-85
2023/06/01 11:47:21;;;;;;;5.90;5.60;;;13.80;99.90;;;;;;4989941;28;20253;-85
2023/06/01 11:49:51;;;;;;;6.90;6.33;;;13.80;99.90;;;;;;5008212;28;20262;-84
2023/06/01 11:52:18;;;;;;;1.13;1.07;;;13.80;99.90;;;;;;4974927;28;20223;-83
2023/06/01 11:54:44;;;;;;;8.27;7.83;;;13.70;99.90;;;;;;4973714;28;20219;-84
2023/06/01 11:57:10;;;;;;;3.73;3.53;;;13.70;99.90;;;;;;5010890;28;20219;-83
2023/06/01 11:59:43;;;;;;;6.33;5.97;;;13.40;99.90;;;;;;4992967;28;20290;-85
2023/06/01 12:02:24;;;;;;;3.37;3.20;;;13.50;99.90;;;;;;4992175;28;20171;-85
2023/06/01 12:05:08;;;;;;;1.57;1.47;;;13.40;99.90;;;;;;4993576;28;20199;-84
2023/06/01 12:07:47;;;;;;;9.63;0.90;;;13.50;99.90;;;;;;4993165;28;20219;-84
2023/06/01 12:10:15;;;;;;;23.57;22.33;;;13.60;99.90;;;;;;4993702;28;20227;-84
2023/06/01 12:12:43;;;;;;;6.53;6.13;;;13.60;99.90;;;;;;4993399;28;20288;-84
2023/06/01 12:15:19;;;;;;;3.33;1.87;;;13.60;99.90;;;;;;5009773;28;20808;-85
2023/06/01 12:17:54;;;;;;;5.77;5.53;;;13.80;99.90;;;;;;4994510;28;20381;-87
2023/06/01 12:20:26;;;;;;;21.50;20.33;;;13.80;99.90;;;;;;4992308;28;20222;-84
2023/06/01 12:22:55;;;;;;;2.23;2.10;;;13.90;99.90;;;;;;4992801;28;20208;-84
2023/06/01 12:25:21;;;;;;;11.87;11.23;;;14.00;99.90;;;;;;5008299;28;20199;-85
2023/06/01 12:28:14;;;;;;;4.83;1.27;;;14.00;99.90;;;;;;4992670;28;20538;-85
2023/06/01 12:30:39;;;;;;;1.47;1.33;;;13.90;99.90;;;;;;4988507;28;20223;-86
2023/06/01 12:33:05;;;;;;;2.03;1.30;;;14.10;99.90;;;;;;4976483;28;20711;-85
2023/06/01 12:35:31;;;;;;;1.93;1.73;;;14.10;99.90;;;;;;4976377;28;20230;-84
2023/06/01 12:38:04;;;;;;;1.50;1.10;;;13.90;99.90;;;;;;4976665;28;20238;-83
2023/06/01 12:40:29;;;;;;;2.10;0.93;;;13.80;99.90;;;;;;4993197;28;20235;-86
2023/06/01 12:42:55;;;;;;;25.03;4.03;;;13.80;99.90;;;;;;5009621;28;20242;-84
2023/06/01 12:45:21;;;;;;;3.20;1.57;;;13.60;99.90;;;;;;4991720;28;20227;-86
2023/06/01 12:47:47;;;;;;;4.57;1.63;;;13.60;99.90;;;;;;4976673;28;20260;-86
2023/06/01 12:50:13;;;;;;;46.50;42.80;;;13.70;99.90;;;;;;4960381;28;20223;-85
2023/06/01 12:52:42;;;;;;;81.20;78.60;;;13.30;99.90;;;;;;4993812;28;20253;-84